100LL.CA
Aviation Fuel Pricing for Canadians
Please upgrade your browser - Tested with IE9, FireFox, Chrome, Safari

Fuel Airports Other Help
Prices Economy Info List METAR/TAF Kneeboard Help

Reference Airport: YELLOWKNIFE, NT
N 62 27 47  W 114 26 25
Provinces to show:

CYZF YELLOWKNIFE, NT
WEATHER
METARCYZF 230308Z 13011KT 15SM -SN FEW013 BKN180 M15/M18 A2971 RMK SC2AC5 SLP089
TAFTAF CYZF 222340Z 2300/2324 11010KT P6SM FEW012 BKN080 TEMPO 2300/2303 P6SM -SN BKN012 FM230300 13010KT P6SM SCT030 BKN150 FM230800 15015KT P6SM SCT012 BKN060 TEMPO 2308/2314 3SM -SN BR SCT006 BKN012 FM231400 23008KT P6SM VCSH FEW012 SCT070 BKN120 FM231800 27015G25KT P6SM SCT012 FM232000 28022G32KT 3SM -SN BLSN BKN008 OVC015 RMK NXT FCST BY 230600Z
OTHER SITES

FlightAware

FltPlan

Google Maps

SkyVector
FUEL
FBO 100LL
member
100LL
public
JETA MOGAS
Deton Cho Shell (2019-08-06)2.1412.329
Midnight Petro (2019-08-06)1.747
Canada Flight Supplement - CYZF
(opens in new tab/window)


Please Send Updates!

Desktop Version ]  [ Mobile Version ]  [ Disclaimer ]